createdAt,value
2022-09-23T00:00:36.727Z,10.07
2022-09-23T00:01:33.831Z,9.97
2022-09-23T00:02:30.624Z,9.77
2022-09-23T00:03:29.250Z,10.08
2022-09-23T00:04:25.958Z,9.72
2022-09-23T00:05:22.973Z,9.50
2022-09-23T00:06:22.465Z,9.66
2022-09-23T00:07:19.184Z,9.75
2022-09-23T00:08:15.864Z,9.48
2022-09-23T00:09:12.752Z,10.02
2022-09-23T00:10:09.711Z,9.80
2022-09-23T00:11:11.120Z,10.30
2022-09-23T00:12:10.053Z,9.52
2022-09-23T00:13:07.120Z,9.74
2022-09-23T00:14:04.422Z,9.99
2022-09-23T00:15:01.157Z,9.77
2022-09-23T00:15:57.831Z,10.00
2022-09-23T00:16:54.599Z,9.77
2022-09-23T00:17:52.978Z,9.33
2022-09-23T00:18:50.523Z,9.72
2022-09-23T00:19:48.359Z,9.45
2022-09-23T00:20:45.176Z,9.03
2022-09-23T00:21:42.681Z,9.03
2022-09-23T00:22:39.673Z,9.61
2022-09-23T00:23:39.083Z,9.30
2022-09-23T00:24:35.756Z,9.68
2022-09-23T00:25:32.501Z,9.67
2022-09-23T00:26:29.297Z,8.89
2022-09-23T00:27:26.401Z,9.76
2022-09-23T00:28:24.045Z,9.54
2022-09-23T00:29:20.740Z,9.54
2022-09-23T00:30:18.506Z,9.39
2022-09-23T00:31:19.271Z,9.40
2022-09-23T00:32:16.032Z,9.30
2022-09-23T00:33:12.723Z,9.31
2022-09-23T00:34:11.276Z,9.30
2022-09-23T00:35:08.982Z,9.31
2022-09-23T00:36:08.656Z,9.16
2022-09-23T00:37:05.762Z,9.23
2022-09-23T00:38:02.511Z,9.31
2022-09-23T00:39:00.057Z,9.02
2022-09-23T00:39:57.018Z,9.43
2022-09-23T00:40:53.861Z,8.55
2022-09-23T00:41:50.634Z,8.86
2022-09-23T00:42:49.527Z,9.67
2022-09-23T00:43:53.646Z,9.65
2022-09-23T00:44:58.646Z,9.57
2022-09-23T00:45:55.502Z,9.41
2022-09-23T00:46:52.471Z,9.32
2022-09-23T00:48:02.709Z,9.21
2022-09-23T00:49:14.287Z,9.43
2022-09-23T00:50:30.143Z,9.61
2022-09-23T00:51:34.761Z,9.52
2022-09-23T00:52:33.006Z,9.03
2022-09-23T00:53:29.838Z,9.44
2022-09-23T00:54:29.085Z,9.38
2022-09-23T00:55:33.049Z,9.79
2022-09-23T00:56:33.169Z,9.68
2022-09-23T00:57:31.274Z,9.55
2022-09-23T00:58:32.875Z,9.40
2022-09-23T00:59:29.838Z,9.88
2022-09-23T01:00:26.902Z,9.53
2022-09-23T01:01:25.586Z,9.88
2022-09-23T01:02:22.600Z,9.83
2022-09-23T01:03:19.682Z,9.67
2022-09-23T01:04:16.687Z,9.34
2022-09-23T01:05:14.696Z,9.51
2022-09-23T01:06:13.038Z,9.19
2022-09-23T01:07:09.873Z,9.09
2022-09-23T01:08:12.745Z,9.63
2022-09-23T01:09:09.458Z,9.67
2022-09-23T01:10:08.024Z,9.64
2022-09-23T01:11:37.571Z,9.56
2022-09-23T01:13:12.073Z,9.72
2022-09-23T01:14:31.369Z,9.57
2022-09-23T01:15:53.325Z,9.74
2022-09-23T01:17:09.307Z,9.24
2022-09-23T01:18:33.183Z,9.79
2022-09-23T01:19:48.665Z,9.86
2022-09-23T01:21:18.648Z,9.27
2022-09-23T01:22:18.491Z,9.92
2022-09-23T01:23:45.945Z,9.86
2022-09-23T01:25:21.631Z,9.69
2022-09-23T01:26:24.063Z,9.69
2022-09-23T01:27:23.847Z,9.63
2022-09-23T01:28:38.946Z,8.77
2022-09-23T01:30:11.543Z,9.21
2022-09-23T01:31:31.218Z,9.35
2022-09-23T01:33:01.501Z,9.56
2022-09-23T01:34:03.111Z,9.69
2022-09-23T01:35:31.436Z,9.49
2022-09-23T01:36:42.358Z,9.92
2022-09-23T01:38:14.298Z,9.79
2022-09-23T01:39:10.896Z,9.99
2022-09-23T01:40:19.018Z,9.75
2022-09-23T01:41:33.766Z,10.04
2022-09-23T01:42:47.766Z,9.91
2022-09-23T01:44:25.783Z,9.82
2022-09-23T01:45:36.120Z,9.54
2022-09-23T01:46:43.174Z,9.09
2022-09-23T01:47:54.875Z,9.68
2022-09-23T01:49:02.953Z,9.09
2022-09-23T01:50:26.837Z,9.52
2022-09-23T01:51:31.002Z,9.36
2022-09-23T01:52:38.875Z,9.66
2022-09-23T01:53:49.545Z,9.76
2022-09-23T01:54:57.373Z,9.35
2022-09-23T01:56:00.480Z,9.57
2022-09-23T01:57:09.651Z,9.56
2022-09-23T01:58:26.297Z,9.66
2022-09-23T01:59:29.200Z,10.12
2022-09-23T02:00:31.858Z,7.38
2022-09-23T02:01:39.289Z,9.52
2022-09-23T02:03:15.409Z,10.08
2022-09-23T02:04:30.501Z,10.15
2022-09-23T02:05:37.957Z,9.61
2022-09-23T02:06:44.414Z,8.99
2022-09-23T02:07:57.301Z,9.88
2022-09-23T02:09:00.974Z,9.26
2022-09-23T02:10:07.302Z,9.39
2022-09-23T02:11:08.961Z,9.26
2022-09-23T02:12:13.840Z,9.34
2022-09-23T02:13:29.949Z,8.53
2022-09-23T02:14:38.329Z,8.56
2022-09-23T02:15:41.982Z,9.10
2022-09-23T02:17:04.815Z,9.28
2022-09-23T02:18:10.582Z,9.11
2022-09-23T02:19:32.808Z,9.16
2022-09-23T02:20:36.151Z,9.02
2022-09-23T02:21:37.206Z,8.96
2022-09-23T02:23:08.382Z,9.23
2022-09-23T02:24:15.222Z,8.97
2022-09-23T02:25:12.607Z,8.95
2022-09-23T02:26:20.982Z,8.42
2022-09-23T02:27:40.938Z,8.90
2022-09-23T02:28:58.601Z,8.99
2022-09-23T02:30:03.563Z,8.93
2022-09-23T02:31:41.885Z,8.75
2022-09-23T02:33:07.066Z,8.96
2022-09-23T02:34:23.178Z,8.99
2022-09-23T02:35:32.795Z,8.76
2022-09-23T02:36:32.293Z,8.87
2022-09-23T02:37:53.927Z,8.90
2022-09-23T02:38:58.091Z,8.17
2022-09-23T02:40:13.239Z,8.46
2022-09-23T02:41:33.796Z,9.12
2022-09-23T02:42:47.192Z,8.68
2022-09-23T02:43:54.751Z,8.85
2022-09-23T02:44:51.584Z,8.92
2022-09-23T02:45:49.564Z,8.67
2022-09-23T02:46:47.194Z,8.29
2022-09-23T02:47:52.254Z,8.23
2022-09-23T02:48:55.695Z,8.64
2022-09-23T02:49:53.188Z,8.54
2022-09-23T02:50:50.402Z,8.32
2022-09-23T02:51:47.248Z,8.46
2022-09-23T02:52:44.147Z,8.52
2022-09-23T02:53:40.997Z,8.65
2022-09-23T02:54:37.661Z,8.71
2022-09-23T02:55:34.364Z,8.52
2022-09-23T02:56:31.028Z,8.78
2022-09-23T02:57:28.331Z,8.31
2022-09-23T02:58:25.247Z,8.71
2022-09-23T02:59:23.805Z,8.86
2022-09-23T03:00:21.023Z,9.02
2022-09-23T03:01:36.084Z,9.02
2022-09-23T03:02:50.935Z,9.30
2022-09-23T03:04:05.142Z,8.93
2022-09-23T03:05:12.698Z,8.83
2022-09-23T03:06:27.624Z,8.88
2022-09-23T03:07:56.098Z,8.71
2022-09-23T03:09:25.129Z,8.74
2022-09-23T03:10:40.077Z,8.62
2022-09-23T03:11:42.875Z,8.60
2022-09-23T03:13:26.202Z,6.94
2022-09-23T03:14:51.954Z,7.48
2022-09-23T03:16:24.649Z,8.42
2022-09-23T03:17:37.601Z,8.45
2022-09-23T03:18:52.356Z,8.28
2022-09-23T03:19:55.184Z,8.46
2022-09-23T03:21:23.363Z,8.38
2022-09-23T03:22:33.666Z,8.23
2022-09-23T03:23:35.997Z,8.44
2022-09-23T03:24:36.604Z,8.47
2022-09-23T03:25:38.566Z,8.02
2022-09-23T03:26:39.810Z,8.30
2022-09-23T03:27:40.125Z,8.32
2022-09-23T03:28:39.638Z,8.62
2022-09-23T03:29:37.030Z,8.16
2022-09-23T03:30:36.977Z,8.18
2022-09-23T03:31:35.008Z,8.51
2022-09-23T03:32:34.885Z,8.56
2022-09-23T03:33:34.789Z,8.02
2022-09-23T03:34:36.234Z,8.56
2022-09-23T03:36:00.704Z,8.46
2022-09-23T03:37:15.378Z,8.33
2022-09-23T03:38:17.404Z,8.26
2022-09-23T03:39:40.236Z,8.56
2022-09-23T03:40:43.596Z,8.24
2022-09-23T03:41:51.168Z,7.39
2022-09-23T03:42:49.081Z,8.32
2022-09-23T03:43:47.743Z,8.14
2022-09-23T03:44:47.029Z,7.89
2022-09-23T03:45:46.588Z,7.50
2022-09-23T03:46:49.626Z,8.06
2022-09-23T03:47:46.358Z,8.34
2022-09-23T03:48:44.941Z,8.09
2022-09-23T03:49:48.381Z,8.17
2022-09-23T03:50:45.137Z,8.01
2022-09-23T03:51:44.669Z,7.61
2022-09-23T03:52:41.645Z,7.81
2022-09-23T03:53:39.614Z,7.78
2022-09-23T03:54:36.426Z,7.79
2022-09-23T03:55:34.833Z,7.37
2022-09-23T03:56:31.540Z,7.50
2022-09-23T03:57:28.270Z,7.49
2022-09-23T03:58:24.944Z,7.74
2022-09-23T03:59:22.971Z,8.10
2022-09-23T04:00:19.737Z,7.69
2022-09-23T04:01:16.487Z,7.93
2022-09-23T04:02:13.299Z,7.97
2022-09-23T04:03:11.932Z,7.91
2022-09-23T04:04:09.842Z,8.07
2022-09-23T04:05:07.706Z,7.75
2022-09-23T04:06:04.711Z,7.65
2022-09-23T04:07:02.278Z,7.98
2022-09-23T04:07:58.998Z,7.92
2022-09-23T04:08:55.750Z,7.59
2022-09-23T04:09:52.758Z,7.72
2022-09-23T04:10:54.641Z,7.85
2022-09-23T04:11:53.125Z,7.82
2022-09-23T04:12:49.922Z,8.25
2022-09-23T04:13:46.618Z,7.23
2022-09-23T04:14:44.096Z,8.08
2022-09-23T04:15:40.938Z,7.90
2022-09-23T04:16:37.822Z,7.91
2022-09-23T04:17:34.594Z,7.17
2022-09-23T04:18:31.377Z,7.99
2022-09-23T04:19:28.265Z,7.94
2022-09-23T04:20:26.052Z,8.07
2022-09-23T04:21:22.849Z,7.91
2022-09-23T04:22:19.865Z,7.62
2022-09-23T04:23:16.649Z,7.77
2022-09-23T04:24:14.678Z,7.84
2022-09-23T04:25:11.454Z,7.77
2022-09-23T04:26:08.317Z,7.52
2022-09-23T04:27:05.092Z,7.74
2022-09-23T04:28:01.894Z,7.45
2022-09-23T04:28:59.081Z,7.39
2022-09-23T04:29:55.946Z,7.63
2022-09-23T04:30:54.016Z,6.80
2022-09-23T04:31:51.557Z,7.41
2022-09-23T04:32:48.324Z,7.68
2022-09-23T04:33:45.014Z,7.78
2022-09-23T04:34:41.714Z,7.86
2022-09-23T04:35:40.360Z,7.77
2022-09-23T04:36:37.753Z,6.96
2022-09-23T04:37:34.477Z,7.96
2022-09-23T04:38:31.192Z,7.94
2022-09-23T04:39:27.915Z,8.01
2022-09-23T04:40:24.651Z,8.07
2022-09-23T04:41:21.362Z,7.59
2022-09-23T04:42:18.149Z,7.93
2022-09-23T04:43:16.491Z,8.12
2022-09-23T04:44:14.495Z,7.95
2022-09-23T04:45:11.188Z,7.98
2022-09-23T04:46:11.233Z,8.04
2022-09-23T04:47:08.013Z,8.00
2022-09-23T04:48:04.943Z,8.01
2022-09-23T04:49:01.716Z,7.63
2022-09-23T04:49:59.973Z,7.36
2022-09-23T04:51:05.070Z,7.77
2022-09-23T04:52:02.830Z,7.49
2022-09-23T04:52:59.775Z,7.73
2022-09-23T04:53:56.489Z,8.15
2022-09-23T04:54:53.186Z,8.12
2022-09-23T04:55:50.236Z,8.16
2022-09-23T04:56:46.965Z,7.43
2022-09-23T04:57:44.524Z,8.35
2022-09-23T04:58:42.214Z,8.09
2022-09-23T04:59:38.903Z,8.41
2022-09-23T05:00:36.533Z,8.54
2022-09-23T05:01:35.166Z,7.84
2022-09-23T05:02:32.199Z,8.82
2022-09-23T05:03:30.190Z,8.05
2022-09-23T05:04:27.421Z,8.32
2022-09-23T05:05:24.262Z,9.16
2022-09-23T05:06:22.308Z,9.22
2022-09-23T05:07:19.151Z,9.18
2022-09-23T05:08:16.040Z,9.00
2022-09-23T05:09:17.218Z,9.44
2022-09-23T05:10:14.848Z,8.79
2022-09-23T05:11:11.575Z,9.37
2022-09-23T05:12:08.362Z,9.37
2022-09-23T05:13:05.091Z,9.18
2022-09-23T05:14:01.973Z,9.39
2022-09-23T05:14:59.279Z,9.84
2022-09-23T05:16:01.558Z,9.79
2022-09-23T05:16:58.302Z,8.51
2022-09-23T05:17:58.174Z,9.48
2022-09-23T05:18:54.969Z,9.32
2022-09-23T05:19:51.682Z,9.29
2022-09-23T05:20:55.600Z,9.36
2022-09-23T05:21:52.322Z,9.92
2022-09-23T05:22:49.019Z,9.97
2022-09-23T05:23:52.393Z,9.87
2022-09-23T05:24:49.071Z,9.74
2022-09-23T05:25:46.302Z,9.62
2022-09-23T05:26:43.089Z,9.92
2022-09-23T05:27:39.797Z,9.70
2022-09-23T05:28:39.280Z,9.68
2022-09-23T05:29:36.110Z,9.55
2022-09-23T05:30:32.798Z,9.64
2022-09-23T05:31:30.881Z,9.85
2022-09-23T05:32:27.933Z,10.15
2022-09-23T05:33:24.611Z,10.50
2022-09-23T05:34:21.340Z,10.50
2022-09-23T05:35:18.042Z,10.54
2022-09-23T05:36:17.821Z,10.28
2022-09-23T05:37:14.618Z,10.36
2022-09-23T05:38:11.326Z,10.19
2022-09-23T05:39:08.615Z,9.85
2022-09-23T05:40:06.036Z,10.36
2022-09-23T05:41:08.089Z,10.06
2022-09-23T05:42:05.477Z,10.12
2022-09-23T05:43:02.201Z,9.23
2022-09-23T05:43:59.803Z,9.65
2022-09-23T05:44:56.512Z,9.84
2022-09-23T05:46:05.867Z,10.03
2022-09-23T05:47:05.119Z,9.22
2022-09-23T05:48:02.381Z,9.90
2022-09-23T05:49:02.830Z,9.76
2022-09-23T05:50:00.803Z,9.98
2022-09-23T05:50:57.633Z,9.87
2022-09-23T05:51:54.339Z,9.96
2022-09-23T05:52:51.929Z,9.41
2022-09-23T05:53:52.568Z,10.10
2022-09-23T05:54:49.926Z,10.05
2022-09-23T05:55:46.663Z,10.29
2022-09-23T05:56:43.834Z,9.82
2022-09-23T05:57:40.577Z,10.26
2022-09-23T05:58:37.444Z,9.66
2022-09-23T05:59:34.239Z,9.92
2022-09-23T06:00:30.934Z,10.23
2022-09-23T06:01:34.234Z,10.24
2022-09-23T06:02:31.279Z,10.10
2022-09-23T06:03:28.182Z,9.98
2022-09-23T06:04:24.925Z,10.25
2022-09-23T06:05:21.665Z,9.95
2022-09-23T06:06:22.652Z,9.86
2022-09-23T06:07:19.755Z,10.31
2022-09-23T06:08:16.484Z,10.65
2022-09-23T06:09:15.228Z,10.85
2022-09-23T06:10:12.109Z,10.39
2022-09-23T06:11:08.826Z,10.38
2022-09-23T06:12:06.409Z,10.80
2022-09-23T06:13:03.390Z,10.78
2022-09-23T06:14:01.235Z,10.65
2022-09-23T06:14:58.485Z,10.81
2022-09-23T06:15:58.071Z,10.93
2022-09-23T06:16:54.874Z,10.48
2022-09-23T06:17:51.595Z,10.20
2022-09-23T06:18:48.474Z,10.47
2022-09-23T06:19:45.267Z,10.35
2022-09-23T06:20:41.954Z,10.39
2022-09-23T06:21:40.825Z,10.59
2022-09-23T06:22:40.123Z,9.57
2022-09-23T06:23:40.683Z,10.61
2022-09-23T06:24:38.422Z,10.11
2022-09-23T06:25:37.105Z,9.83
2022-09-23T06:26:35.624Z,10.55
2022-09-23T06:27:32.610Z,10.63
2022-09-23T06:28:32.382Z,10.52
2022-09-23T06:29:30.870Z,10.24
2022-09-23T06:30:28.346Z,10.33
2022-09-23T06:31:25.153Z,10.38
2022-09-23T06:32:23.110Z,10.66
2022-09-23T06:33:30.026Z,10.60
2022-09-23T06:34:42.946Z,10.79
2022-09-23T06:35:52.175Z,10.51
2022-09-23T06:36:51.913Z,10.79
2022-09-23T06:37:49.349Z,10.66
2022-09-23T06:38:48.515Z,10.75
2022-09-23T06:39:45.224Z,10.66
2022-09-23T06:40:42.046Z,11.07
2022-09-23T06:41:39.344Z,10.86
2022-09-23T06:42:36.405Z,10.27
2022-09-23T06:43:33.921Z,10.37
2022-09-23T06:44:30.588Z,9.67
2022-09-23T06:45:28.918Z,10.57
2022-09-23T06:46:25.737Z,10.22
2022-09-23T06:47:22.490Z,10.49
2022-09-23T06:48:19.290Z,10.69
2022-09-23T06:49:16.091Z,10.97
2022-09-23T06:50:13.371Z,11.07
2022-09-23T06:51:19.006Z,11.02
2022-09-23T06:52:15.704Z,11.11
2022-09-23T06:53:12.866Z,10.88
2022-09-23T06:54:11.078Z,10.75
2022-09-23T06:55:10.164Z,10.77
2022-09-23T06:56:11.379Z,10.90
2022-09-23T06:57:10.128Z,10.62
2022-09-23T06:58:07.252Z,10.37
2022-09-23T06:59:04.254Z,10.76
2022-09-23T07:00:01.504Z,10.90
2022-09-23T07:01:07.226Z,10.76
2022-09-23T07:02:04.115Z,10.92
2022-09-23T07:03:01.113Z,11.03
2022-09-23T07:03:57.838Z,11.11
2022-09-23T07:04:57.434Z,11.19
2022-09-23T07:05:57.738Z,11.01
2022-09-23T07:06:55.555Z,10.67
2022-09-23T07:07:53.317Z,11.02
2022-09-23T07:08:51.310Z,11.23
2022-09-23T07:09:48.137Z,11.45
2022-09-23T07:10:51.403Z,11.68
2022-09-23T07:11:48.536Z,11.95
2022-09-23T07:12:45.283Z,11.75
2022-09-23T07:13:42.842Z,11.67
2022-09-23T07:14:39.977Z,12.11
2022-09-23T07:15:36.825Z,11.57
2022-09-23T07:16:33.579Z,11.87
2022-09-23T07:17:31.017Z,12.06
2022-09-23T07:18:35.595Z,11.98
2022-09-23T07:19:35.386Z,11.93
2022-09-23T07:20:32.131Z,10.17
2022-09-23T07:21:28.826Z,11.87
2022-09-23T07:22:26.597Z,11.51
2022-09-23T07:23:23.949Z,11.86
2022-09-23T07:24:20.738Z,12.00
2022-09-23T07:25:18.307Z,12.13
2022-09-23T07:26:17.055Z,11.86
2022-09-23T07:27:19.941Z,12.05
2022-09-23T07:28:20.116Z,12.37
2022-09-23T07:29:16.789Z,12.30
2022-09-23T07:30:23.346Z,12.62
2022-09-23T07:31:36.075Z,10.91
2022-09-23T07:32:44.938Z,11.87
2022-09-23T07:33:44.685Z,12.56
2022-09-23T07:34:41.941Z,12.37
2022-09-23T07:35:41.093Z,12.20
2022-09-23T07:36:40.964Z,10.82
2022-09-23T07:37:38.213Z,12.09
2022-09-23T07:38:36.102Z,11.26
2022-09-23T07:39:32.832Z,12.17
2022-09-23T07:40:29.592Z,12.40
2022-09-23T07:41:28.853Z,12.32
2022-09-23T07:42:25.606Z,12.37
2022-09-23T07:43:22.310Z,12.80
2022-09-23T07:44:19.194Z,12.77
2022-09-23T07:45:16.081Z,12.19
2022-09-23T07:46:16.854Z,11.10
2022-09-23T07:47:15.717Z,12.61
2022-09-23T07:48:34.320Z,12.47
2022-09-23T07:49:31.375Z,12.50
2022-09-23T07:50:30.106Z,11.65
2022-09-23T07:51:35.420Z,11.42
2022-09-23T07:52:36.307Z,12.74
2022-09-23T07:53:33.414Z,12.10
2022-09-23T07:54:30.294Z,12.32
2022-09-23T07:55:27.009Z,12.16
2022-09-23T07:56:29.257Z,12.21
2022-09-23T07:57:26.312Z,12.58
2022-09-23T07:58:23.558Z,12.74
2022-09-23T07:59:20.326Z,12.50
2022-09-23T08:00:17.814Z,12.69
2022-09-23T08:01:14.607Z,12.80
2022-09-23T08:02:12.280Z,12.42
2022-09-23T08:03:10.192Z,12.35
2022-09-23T08:04:25.559Z,12.68
2022-09-23T08:05:22.748Z,12.65
2022-09-23T08:06:19.487Z,11.93
2022-09-23T08:07:16.634Z,12.10
2022-09-23T08:08:14.217Z,12.52
2022-09-23T08:09:11.667Z,12.76
2022-09-23T08:10:08.699Z,11.85
2022-09-23T08:11:07.585Z,12.31
2022-09-23T08:12:04.968Z,11.92
2022-09-23T08:13:03.429Z,11.96
2022-09-23T08:14:00.100Z,12.63
2022-09-23T08:14:56.824Z,13.08
2022-09-23T08:15:55.645Z,13.28
2022-09-23T08:16:52.648Z,12.45
2022-09-23T08:17:49.507Z,13.14
2022-09-23T08:18:46.698Z,13.29
2022-09-23T08:19:43.389Z,12.21
2022-09-23T08:20:47.373Z,13.17
2022-09-23T08:21:47.474Z,12.75
2022-09-23T08:22:44.199Z,12.75
2022-09-23T08:23:40.937Z,12.96
2022-09-23T08:24:38.116Z,13.41
2022-09-23T08:25:34.922Z,13.52
2022-09-23T08:26:34.300Z,13.44
2022-09-23T08:27:33.203Z,13.38
2022-09-23T08:28:30.306Z,13.43
2022-09-23T08:29:27.027Z,13.23
2022-09-23T08:30:23.721Z,12.57
2022-09-23T08:31:22.083Z,12.06
2022-09-23T08:32:18.944Z,12.23
2022-09-23T08:33:19.681Z,12.82
2022-09-23T08:34:23.531Z,13.19
2022-09-23T08:35:20.546Z,13.23
2022-09-23T08:36:17.397Z,13.24
2022-09-23T08:37:14.147Z,13.67
2022-09-23T08:38:10.836Z,13.47
2022-09-23T08:39:07.743Z,13.39
2022-09-23T08:40:05.337Z,13.20
2022-09-23T08:41:20.591Z,13.21
2022-09-23T08:42:31.564Z,13.49
2022-09-23T08:43:35.767Z,13.35
2022-09-23T08:44:42.503Z,13.38
2022-09-23T08:45:42.188Z,13.49
2022-09-23T08:46:54.727Z,13.39
2022-09-23T08:48:13.021Z,13.76
2022-09-23T08:49:20.109Z,13.60
2022-09-23T08:50:21.935Z,13.80
2022-09-23T08:51:41.186Z,14.06
2022-09-23T08:53:04.692Z,13.95
2022-09-23T08:54:01.863Z,14.04
2022-09-23T08:54:58.650Z,13.60
2022-09-23T08:55:59.634Z,13.85
2022-09-23T08:57:02.451Z,13.60
2022-09-23T08:58:26.283Z,13.39
2022-09-23T08:59:40.149Z,12.45
2022-09-23T09:00:42.133Z,13.74
2022-09-23T09:01:42.592Z,13.54
2022-09-23T09:02:39.552Z,13.72
2022-09-23T09:03:49.287Z,13.65
2022-09-23T09:04:54.502Z,13.71
2022-09-23T09:05:55.130Z,14.04
2022-09-23T09:07:12.342Z,14.35
2022-09-23T09:08:26.611Z,14.40
2022-09-23T09:09:30.426Z,13.94
2022-09-23T09:10:38.109Z,13.00
2022-09-23T09:11:47.915Z,13.76
2022-09-23T09:12:49.955Z,13.65
2022-09-23T09:14:01.088Z,13.38
2022-09-23T09:15:01.039Z,13.58
2022-09-23T09:16:55.509Z,13.67
2022-09-23T09:18:12.226Z,12.87
2022-09-23T09:19:20.995Z,13.08
2022-09-23T09:20:57.482Z,14.16
2022-09-23T09:21:55.492Z,14.21
2022-09-23T09:23:15.531Z,13.93
2022-09-23T09:24:27.484Z,14.09
2022-09-23T09:25:38.042Z,14.11
2022-09-23T09:26:35.764Z,13.75
2022-09-23T09:27:33.493Z,14.21
2022-09-23T09:28:42.285Z,14.11
2022-09-23T09:29:44.716Z,14.08
2022-09-23T09:30:48.319Z,14.05
2022-09-23T09:31:48.217Z,14.20
2022-09-23T09:32:59.249Z,14.05
2022-09-23T09:34:05.027Z,14.20
2022-09-23T09:35:16.431Z,14.39
2022-09-23T09:36:18.949Z,14.22
2022-09-23T09:37:31.433Z,13.53
2022-09-23T09:38:28.452Z,13.62
2022-09-23T09:39:27.419Z,13.74
2022-09-23T09:40:25.517Z,13.50
2022-09-23T09:41:24.643Z,13.62
2022-09-23T09:42:41.392Z,13.17
2022-09-23T09:43:44.061Z,14.02
2022-09-23T09:44:40.937Z,14.40
2022-09-23T09:46:08.835Z,14.46
2022-09-23T09:47:28.490Z,14.20
2022-09-23T09:48:37.894Z,14.20
2022-09-23T09:49:45.531Z,13.88
2022-09-23T09:50:45.139Z,14.45
2022-09-23T09:51:42.481Z,14.58
2022-09-23T09:52:43.095Z,14.62
2022-09-23T09:53:39.810Z,14.91
2022-09-23T09:54:36.594Z,14.82
2022-09-23T09:55:33.319Z,15.05
2022-09-23T09:56:36.233Z,14.54
2022-09-23T09:57:41.916Z,14.82
2022-09-23T09:58:49.200Z,14.53
2022-09-23T09:59:45.905Z,14.63
2022-09-23T10:00:46.057Z,14.49
2022-09-23T10:01:42.830Z,14.91
2022-09-23T10:02:40.010Z,14.85
2022-09-23T10:03:43.098Z,14.71
2022-09-23T10:04:41.175Z,14.35
2022-09-23T10:05:52.293Z,14.59
2022-09-23T10:07:14.245Z,14.15
2022-09-23T10:08:35.855Z,14.23
2022-09-23T10:09:38.302Z,14.13
2022-09-23T10:10:35.090Z,14.34
2022-09-23T10:11:32.854Z,14.32
2022-09-23T10:12:46.685Z,14.20
2022-09-23T10:14:18.117Z,14.48
2022-09-23T10:15:32.890Z,14.66
2022-09-23T10:16:32.629Z,14.72
2022-09-23T10:17:35.384Z,14.63
2022-09-23T10:18:48.165Z,14.81
2022-09-23T10:19:55.624Z,14.66
2022-09-23T10:20:52.696Z,14.77
2022-09-23T10:22:05.245Z,14.87
2022-09-23T10:23:22.155Z,14.89
2022-09-23T10:24:26.261Z,14.93
2022-09-23T10:25:27.579Z,14.82
2022-09-23T10:26:34.425Z,14.96
2022-09-23T10:27:35.872Z,15.18
2022-09-23T10:28:32.551Z,15.29
2022-09-23T10:29:29.195Z,15.02
2022-09-23T10:30:28.031Z,14.91
2022-09-23T10:31:31.611Z,14.99
2022-09-23T10:32:44.985Z,15.21
2022-09-23T10:33:48.575Z,15.30
2022-09-23T10:34:50.502Z,15.17
2022-09-23T10:35:57.266Z,14.87
2022-09-23T10:37:13.745Z,15.22
2022-09-23T10:38:11.033Z,15.34
2022-09-23T10:39:28.993Z,15.01
2022-09-23T10:40:57.845Z,15.03
2022-09-23T10:42:36.280Z,14.99
2022-09-23T10:44:00.504Z,14.93
2022-09-23T10:45:43.332Z,15.27
2022-09-23T10:47:07.284Z,15.22
2022-09-23T10:48:20.036Z,15.25
2022-09-23T10:49:44.907Z,15.09
2022-09-23T10:50:49.458Z,14.76
2022-09-23T10:52:01.345Z,14.22
2022-09-23T10:53:10.050Z,15.29
2022-09-23T10:54:39.018Z,15.20
2022-09-23T10:55:50.687Z,15.61
2022-09-23T10:57:38.049Z,15.54
2022-09-23T10:58:43.523Z,15.74
2022-09-23T11:00:24.946Z,15.54
2022-09-23T11:01:21.684Z,15.45
2022-09-23T11:03:03.078Z,15.23
2022-09-23T11:04:06.533Z,15.38
2022-09-23T11:05:19.028Z,15.35
2022-09-23T11:06:37.313Z,15.13
2022-09-23T11:07:47.371Z,15.64
2022-09-23T11:09:04.666Z,15.77
2022-09-23T11:10:45.008Z,15.87
2022-09-23T11:12:03.884Z,15.66
2022-09-23T11:13:13.212Z,16.00
2022-09-23T11:14:24.764Z,16.19
2022-09-23T11:15:48.610Z,16.16
2022-09-23T11:17:04.792Z,15.93
2022-09-23T11:18:04.255Z,15.89
2022-09-23T11:19:19.695Z,15.72
2022-09-23T11:20:34.519Z,15.71
2022-09-23T11:21:46.021Z,16.24
2022-09-23T11:23:14.032Z,15.96
2022-09-23T11:24:31.222Z,16.13
2022-09-23T11:25:47.120Z,16.12
2022-09-23T11:27:16.594Z,16.15
2022-09-23T11:28:47.110Z,16.40
2022-09-23T11:30:14.131Z,16.15
2022-09-23T11:31:30.070Z,16.58
2022-09-23T11:32:42.293Z,16.49
2022-09-23T11:33:44.715Z,16.60
2022-09-23T11:34:44.003Z,16.42
2022-09-23T11:36:33.891Z,16.67
2022-09-23T11:37:40.921Z,16.42
2022-09-23T11:38:47.126Z,16.23
2022-09-23T11:39:51.128Z,16.10
2022-09-23T11:40:54.843Z,16.26
2022-09-23T11:41:56.661Z,16.60
2022-09-23T11:43:14.161Z,16.17
2022-09-23T11:44:31.939Z,16.17
2022-09-23T11:45:42.041Z,15.68
2022-09-23T11:47:01.606Z,16.06
2022-09-23T11:48:12.557Z,16.23
2022-09-23T11:49:17.007Z,16.15
2022-09-23T11:50:40.363Z,16.29
2022-09-23T11:52:03.217Z,16.62
2022-09-23T11:53:15.644Z,16.80
2022-09-23T11:54:20.628Z,16.16
2022-09-23T11:55:54.518Z,16.11
2022-09-23T11:57:00.233Z,16.27
2022-09-23T11:58:25.881Z,15.93
2022-09-23T11:59:41.170Z,16.17
2022-09-23T12:00:50.597Z,16.11
2022-09-23T12:02:17.912Z,15.48
2022-09-23T12:03:42.345Z,15.70
2022-09-23T12:04:56.006Z,16.47
2022-09-23T12:05:58.283Z,16.80
2022-09-23T12:07:05.942Z,16.69
2022-09-23T12:08:32.398Z,17.13
2022-09-23T12:09:57.823Z,16.98
2022-09-23T12:11:24.843Z,16.76
2022-09-23T12:12:27.092Z,16.58
2022-09-23T12:13:49.919Z,16.41
2022-09-23T12:15:06.341Z,16.73
2022-09-23T12:16:11.816Z,16.87
2022-09-23T12:18:22.995Z,16.72
2022-09-23T12:19:55.530Z,16.56
2022-09-23T12:21:04.102Z,16.87
2022-09-23T12:22:16.791Z,17.03
2022-09-23T12:23:32.127Z,17.29
2022-09-23T12:24:40.689Z,17.10
2022-09-23T12:25:48.134Z,16.70
2022-09-23T12:26:54.216Z,16.84
2022-09-23T12:27:55.670Z,16.44
2022-09-23T12:29:00.223Z,16.54
2022-09-23T12:30:03.263Z,16.37
2022-09-23T12:31:03.619Z,16.43
2022-09-23T12:32:01.323Z,16.38
2022-09-23T12:33:24.867Z,15.74
2022-09-23T12:34:44.099Z,15.66
2022-09-23T12:35:46.182Z,15.87
2022-09-23T12:36:43.018Z,15.23
2022-09-23T12:37:39.746Z,15.60
2022-09-23T12:38:53.330Z,15.37
2022-09-23T12:39:50.186Z,15.41
2022-09-23T12:40:48.303Z,15.66
2022-09-23T12:41:55.075Z,15.19
2022-09-23T12:42:52.170Z,14.83
2022-09-23T12:44:20.127Z,15.51
2022-09-23T12:45:32.694Z,15.20
2022-09-23T12:46:29.593Z,15.09
2022-09-23T12:47:38.482Z,13.87
2022-09-23T12:48:47.705Z,14.67
2022-09-23T12:49:44.440Z,15.36
2022-09-23T12:51:15.860Z,14.98
2022-09-23T12:52:18.785Z,15.31
2022-09-23T12:53:33.567Z,15.34
2022-09-23T12:54:30.885Z,15.31
2022-09-23T12:55:33.594Z,15.32
2022-09-23T12:56:36.230Z,15.31
2022-09-23T12:57:35.771Z,15.30
2022-09-23T12:58:44.774Z,15.33
2022-09-23T13:00:12.573Z,15.28
2022-09-23T13:01:15.082Z,15.40
2022-09-23T13:03:15.447Z,15.42
2022-09-23T13:05:02.750Z,15.75
2022-09-23T13:06:19.929Z,14.89
2022-09-23T13:07:23.778Z,14.75
2022-09-23T13:08:25.206Z,15.24
2022-09-23T13:09:30.096Z,15.04
2022-09-23T13:10:48.299Z,14.19
2022-09-23T13:11:48.085Z,15.12
2022-09-23T13:12:47.366Z,14.98
2022-09-23T13:13:48.903Z,15.10
2022-09-23T13:14:50.062Z,14.37
2022-09-23T13:15:47.748Z,15.31
2022-09-23T13:16:46.343Z,15.42
2022-09-23T13:17:43.227Z,15.28
2022-09-23T13:18:54.981Z,15.29
2022-09-23T13:20:00.711Z,15.17
2022-09-23T13:20:57.526Z,14.60
2022-09-23T13:21:54.196Z,15.34
2022-09-23T13:22:53.403Z,15.36
2022-09-23T13:24:24.946Z,15.35
2022-09-23T13:25:26.599Z,15.21
2022-09-23T13:26:23.501Z,14.95
2022-09-23T13:27:31.978Z,15.43
2022-09-23T13:28:56.778Z,15.67
2022-09-23T13:30:02.813Z,15.09
2022-09-23T13:31:04.648Z,14.80
2022-09-23T13:32:02.065Z,15.05
2022-09-23T13:33:10.905Z,15.70
2022-09-23T13:34:13.247Z,15.36
2022-09-23T13:35:12.790Z,15.66
2022-09-23T13:36:33.536Z,15.34
2022-09-23T13:37:47.503Z,15.24
2022-09-23T13:38:46.945Z,14.81
2022-09-23T13:39:43.695Z,15.94
2022-09-23T13:40:45.076Z,16.10
2022-09-23T13:41:45.313Z,15.14
2022-09-23T13:42:45.987Z,16.09
2022-09-23T13:43:45.411Z,15.98
2022-09-23T13:44:42.392Z,15.94
2022-09-23T13:45:43.257Z,15.93
2022-09-23T13:46:51.650Z,16.07
2022-09-23T13:47:51.632Z,16.08
2022-09-23T13:48:54.637Z,16.31
2022-09-23T13:49:51.668Z,15.85
2022-09-23T13:50:51.948Z,16.33
2022-09-23T13:51:50.106Z,16.09
2022-09-23T13:52:53.665Z,15.63
2022-09-23T13:53:59.039Z,16.17
2022-09-23T13:54:56.207Z,16.20
2022-09-23T13:56:12.016Z,16.20
2022-09-23T13:57:29.387Z,16.05
2022-09-23T13:58:30.365Z,15.90
2022-09-23T13:59:28.544Z,16.25
2022-09-23T14:00:26.121Z,16.11
2022-09-23T14:01:32.398Z,16.02
2022-09-23T14:02:29.394Z,15.67